createdAt,value
2022-09-18T04:00:33.849Z,31.30
2022-09-18T04:03:01.951Z,29.00
2022-09-18T04:05:29.980Z,23.40
2022-09-18T04:07:59.176Z,15.00
2022-09-18T04:10:27.589Z,8.40
2022-09-18T04:12:55.540Z,1.10
2022-09-18T04:15:35.353Z,1.00
2022-09-18T04:18:04.936Z,1.00
2022-09-18T04:20:32.912Z,1.00
2022-09-18T04:23:01.048Z,1.00
2022-09-18T04:25:29.952Z,1.00
2022-09-18T04:27:58.006Z,1.00
2022-09-18T04:30:26.186Z,1.00
2022-09-18T04:32:54.224Z,1.00
2022-09-18T04:35:23.615Z,1.00
2022-09-18T04:37:51.656Z,1.00
2022-09-18T04:40:20.185Z,1.00
2022-09-18T04:42:48.533Z,1.00
2022-09-18T04:45:16.782Z,1.00
2022-09-18T04:47:46.570Z,1.00
2022-09-18T04:50:15.095Z,1.00
2022-09-18T04:52:44.967Z,1.00
2022-09-18T04:55:12.947Z,1.00
2022-09-18T04:57:41.025Z,1.00
2022-09-18T05:00:10.763Z,1.00
2022-09-18T05:02:39.710Z,1.00
2022-09-18T05:05:08.617Z,1.00
2022-09-18T05:07:37.220Z,1.00
2022-09-18T05:10:10.394Z,1.00
2022-09-18T05:12:40.705Z,1.00
2022-09-18T05:15:10.268Z,1.00
2022-09-18T05:17:40.133Z,1.00
2022-09-18T05:20:09.935Z,1.00
2022-09-18T05:22:38.689Z,1.00
2022-09-18T05:25:09.413Z,1.00
2022-09-18T05:27:37.413Z,1.00
2022-09-18T05:30:07.160Z,1.00
2022-09-18T05:32:35.136Z,1.00
2022-09-18T05:35:03.153Z,1.00
2022-09-18T05:37:31.117Z,1.00
2022-09-18T05:39:59.152Z,1.00
2022-09-18T05:42:28.527Z,1.00
2022-09-18T05:44:59.889Z,1.00
2022-09-18T05:47:32.386Z,1.00
2022-09-18T05:50:00.352Z,1.00
2022-09-18T05:52:28.279Z,1.00
2022-09-18T05:54:56.292Z,1.00
2022-09-18T05:57:24.295Z,1.00
2022-09-18T05:59:53.657Z,1.00
2022-09-18T06:02:21.655Z,1.00
2022-09-18T06:04:49.691Z,1.00
2022-09-18T06:07:17.703Z,1.00
2022-09-18T06:09:46.031Z,1.00
2022-09-18T06:12:14.053Z,1.00
2022-09-18T06:14:42.071Z,1.00
2022-09-18T06:17:11.443Z,1.00
2022-09-18T06:19:39.405Z,1.00
2022-09-18T06:22:07.462Z,1.00
2022-09-18T06:24:35.451Z,1.00
2022-09-18T06:27:03.469Z,1.00
2022-09-18T06:29:31.558Z,1.00
2022-09-18T06:31:59.523Z,1.00
2022-09-18T06:34:28.866Z,1.00
2022-09-18T06:36:56.916Z,1.00
2022-09-18T06:39:24.890Z,1.00
2022-09-18T06:41:53.202Z,1.00
2022-09-18T06:44:21.233Z,1.00
2022-09-18T06:46:49.396Z,1.00
2022-09-18T06:49:17.386Z,1.00
2022-09-18T06:51:48.560Z,1.00
2022-09-18T06:54:16.905Z,1.00
2022-09-18T06:56:47.730Z,1.00
2022-09-18T06:59:15.776Z,1.00
2022-09-18T07:01:44.355Z,1.00
2022-09-18T07:04:12.324Z,1.00
2022-09-18T07:06:40.453Z,1.00
2022-09-18T07:09:09.741Z,1.00
2022-09-18T07:11:37.729Z,1.00
2022-09-18T07:14:08.062Z,1.00
2022-09-18T07:16:36.940Z,1.00
2022-09-18T07:19:05.996Z,1.00
2022-09-18T07:21:33.956Z,1.00
2022-09-18T07:24:02.572Z,1.00
2022-09-18T07:26:32.044Z,1.00
2022-09-18T07:29:00.105Z,1.00
2022-09-18T07:31:28.188Z,1.00
2022-09-18T07:33:57.174Z,1.00
2022-09-18T07:36:25.189Z,1.00
2022-09-18T07:38:53.620Z,1.00
2022-09-18T07:41:21.876Z,1.00
2022-09-18T07:43:52.365Z,1.00
2022-09-18T07:46:20.588Z,1.00
2022-09-18T07:48:48.746Z,1.00
2022-09-18T07:51:16.862Z,1.00
2022-09-18T07:53:44.874Z,1.00
2022-09-18T07:56:13.544Z,1.00
2022-09-18T07:58:41.679Z,1.00
2022-09-18T08:01:11.008Z,1.00
2022-09-18T08:03:41.344Z,1.00
2022-09-18T08:06:09.752Z,1.00
2022-09-18T08:08:37.756Z,1.00
2022-09-18T08:11:05.962Z,1.00
2022-09-18T08:13:33.941Z,1.00
2022-09-18T08:16:06.112Z,1.00
2022-09-18T08:18:36.249Z,1.00
2022-09-18T08:21:08.504Z,1.00
2022-09-18T08:23:38.431Z,1.00
2022-09-18T08:26:06.943Z,1.00
2022-09-18T08:28:35.316Z,1.00
2022-09-18T08:31:03.497Z,1.00
2022-09-18T08:33:31.474Z,1.00
2022-09-18T08:36:00.859Z,1.00
2022-09-18T08:38:28.862Z,1.00
2022-09-18T08:41:16.980Z,1.00
2022-09-18T08:44:01.876Z,1.00
2022-09-18T08:46:39.074Z,1.00
2022-09-18T08:49:23.985Z,1.00
2022-09-18T08:52:03.976Z,1.00
2022-09-18T08:54:44.834Z,1.00
2022-09-18T08:57:20.486Z,1.00
2022-09-18T08:59:54.508Z,1.00
2022-09-18T09:02:39.588Z,1.00
2022-09-18T09:05:15.498Z,1.00
2022-09-18T09:08:26.248Z,1.00
2022-09-18T09:11:07.133Z,1.00
2022-09-18T09:14:08.095Z,1.00
2022-09-18T09:16:44.336Z,1.00
2022-09-18T09:19:31.285Z,1.00
2022-09-18T09:22:08.464Z,1.00
2022-09-18T09:24:46.917Z,1.00
2022-09-18T09:27:25.659Z,1.00
2022-09-18T09:30:02.597Z,1.00
2022-09-18T09:32:38.838Z,1.00
2022-09-18T09:35:26.241Z,1.00
2022-09-18T09:37:54.958Z,1.00
2022-09-18T09:40:34.646Z,1.00
2022-09-18T09:43:12.541Z,1.00
2022-09-18T09:45:48.172Z,1.00
2022-09-18T09:48:25.966Z,1.00
2022-09-18T09:51:03.740Z,1.00
2022-09-18T09:53:32.425Z,1.00
2022-09-18T09:56:15.191Z,1.00
2022-09-18T09:58:56.996Z,1.00
2022-09-18T10:01:32.675Z,1.00
2022-09-18T10:04:26.576Z,1.00
2022-09-18T10:07:03.009Z,1.00
2022-09-18T10:09:40.570Z,1.00
2022-09-18T10:12:25.528Z,1.00
2022-09-18T10:15:00.253Z,1.00
2022-09-18T10:17:37.735Z,1.00
2022-09-18T10:20:07.897Z,1.00
2022-09-18T10:22:37.658Z,1.00
2022-09-18T10:25:18.089Z,1.00
2022-09-18T10:27:47.396Z,1.00
2022-09-18T10:30:16.590Z,1.00
2022-09-18T10:32:44.686Z,1.00
2022-09-18T10:35:47.189Z,1.00
2022-09-18T10:38:34.606Z,1.00
2022-09-18T10:41:30.412Z,1.00
2022-09-18T10:44:21.368Z,1.00
2022-09-18T10:47:00.224Z,1.00
2022-09-18T10:49:33.967Z,1.00
2022-09-18T10:52:23.523Z,1.00
2022-09-18T10:55:18.340Z,1.00
2022-09-18T10:58:03.542Z,1.00
2022-09-18T11:00:47.420Z,1.00
2022-09-18T11:03:41.045Z,1.00
2022-09-18T11:06:16.798Z,1.00
2022-09-18T11:08:50.051Z,1.00
2022-09-18T11:11:27.259Z,1.00
2022-09-18T11:14:01.356Z,1.00
2022-09-18T11:16:37.515Z,1.00
2022-09-18T11:19:14.501Z,1.00
2022-09-18T11:21:46.715Z,1.00
2022-09-18T11:24:26.330Z,1.00
2022-09-18T11:26:57.040Z,1.00
2022-09-18T11:29:31.513Z,1.00
2022-09-18T11:32:11.907Z,1.00
2022-09-18T11:34:47.619Z,1.00
2022-09-18T11:37:27.153Z,1.00
2022-09-18T11:40:01.892Z,1.00
2022-09-18T11:42:31.453Z,1.00
2022-09-18T11:45:20.714Z,1.00
2022-09-18T11:47:58.317Z,1.00
2022-09-18T11:50:33.083Z,1.00
2022-09-18T11:53:09.605Z,1.00
2022-09-18T11:55:42.907Z,1.00
2022-09-18T11:58:19.300Z,1.00
2022-09-18T12:00:54.780Z,1.00
2022-09-18T12:03:31.888Z,1.00
2022-09-18T12:06:07.830Z,1.00
2022-09-18T12:08:50.919Z,1.00
2022-09-18T12:11:29.290Z,1.00
2022-09-18T12:14:12.616Z,1.00
2022-09-18T12:16:48.791Z,1.00
2022-09-18T12:19:25.111Z,1.00
2022-09-18T12:22:04.825Z,1.00
2022-09-18T12:24:34.095Z,1.00
2022-09-18T12:27:25.974Z,1.00
2022-09-18T12:30:08.106Z,1.00
2022-09-18T12:33:13.551Z,1.00
2022-09-18T12:36:19.015Z,1.00
2022-09-18T12:39:12.328Z,1.00
2022-09-18T12:41:58.556Z,1.00
2022-09-18T12:44:51.985Z,1.00
2022-09-18T12:47:41.992Z,1.00
2022-09-18T12:50:59.866Z,1.00
2022-09-18T12:53:50.051Z,1.00
2022-09-18T12:56:36.411Z,1.00
2022-09-18T12:59:49.768Z,1.00
2022-09-18T13:02:34.081Z,1.00
2022-09-18T13:05:07.542Z,1.00
2022-09-18T13:07:43.786Z,1.00
2022-09-18T13:10:21.617Z,1.00
2022-09-18T13:12:59.334Z,1.00
2022-09-18T13:15:31.858Z,1.00
2022-09-18T13:18:17.139Z,1.00
2022-09-18T13:20:47.217Z,1.00
2022-09-18T13:23:20.365Z,1.00
2022-09-18T13:25:51.857Z,1.00
2022-09-18T13:28:23.173Z,1.00
2022-09-18T13:31:27.589Z,1.00
2022-09-18T13:33:58.832Z,1.00
2022-09-18T13:36:31.735Z,1.00
2022-09-18T13:39:03.367Z,1.00
2022-09-18T13:41:44.667Z,1.00
2022-09-18T13:44:21.231Z,1.00
2022-09-18T13:46:51.725Z,1.00
2022-09-18T13:49:28.816Z,1.00
2022-09-18T13:51:57.879Z,1.00
2022-09-18T13:54:29.283Z,1.00
2022-09-18T13:57:22.092Z,1.00
2022-09-18T13:59:55.972Z,1.00
2022-09-18T14:02:37.579Z,1.00
2022-09-18T14:05:32.866Z,1.00
2022-09-18T14:08:05.311Z,1.00
2022-09-18T14:10:59.465Z,1.00
2022-09-18T14:13:54.021Z,1.00
2022-09-18T14:16:38.753Z,1.00
2022-09-18T14:19:30.852Z,1.00
2022-09-18T14:22:00.442Z,1.00
2022-09-18T14:25:01.751Z,1.00
2022-09-18T14:27:46.411Z,1.00
2022-09-18T14:30:23.731Z,1.00
2022-09-18T14:33:18.488Z,1.00
2022-09-18T14:35:56.562Z,1.00
2022-09-18T14:38:32.804Z,1.00
2022-09-18T14:41:18.825Z,1.00
2022-09-18T14:43:52.813Z,1.00
2022-09-18T14:46:25.521Z,1.00
2022-09-18T14:48:54.748Z,1.00
2022-09-18T14:51:25.717Z,1.00
2022-09-18T14:53:57.111Z,1.00
2022-09-18T14:56:30.597Z,1.00
2022-09-18T14:59:02.116Z,1.00
2022-09-18T15:01:34.433Z,1.00
2022-09-18T15:04:05.751Z,1.00
2022-09-18T15:06:39.366Z,1.00
2022-09-18T15:09:12.868Z,1.00
2022-09-18T15:12:01.374Z,1.00
2022-09-18T15:14:41.859Z,1.00
2022-09-18T15:17:20.395Z,1.00
2022-09-18T15:20:00.883Z,1.00
2022-09-18T15:22:30.919Z,1.00
2022-09-18T15:25:01.799Z,1.00
2022-09-18T15:27:32.016Z,1.00
2022-09-18T15:30:04.948Z,1.00
2022-09-18T15:32:40.132Z,1.00
2022-09-18T15:35:17.982Z,1.00
2022-09-18T15:37:53.932Z,1.00
2022-09-18T15:40:29.401Z,1.00
2022-09-18T15:43:02.105Z,1.00
2022-09-18T15:45:32.929Z,1.00
2022-09-18T15:48:34.257Z,1.00
2022-09-18T15:51:09.592Z,1.00
2022-09-18T15:53:38.492Z,1.00
2022-09-18T15:56:10.797Z,1.00
2022-09-18T15:58:52.257Z,1.00
2022-09-18T16:01:30.687Z,1.00
2022-09-18T16:04:09.158Z,1.00
2022-09-18T16:06:50.689Z,1.00
2022-09-18T16:09:35.639Z,1.00
2022-09-18T16:12:27.092Z,1.00
2022-09-18T16:15:14.121Z,1.00
2022-09-18T16:18:01.933Z,1.00
2022-09-18T16:20:40.419Z,1.00
2022-09-18T16:23:27.576Z,1.00
2022-09-18T16:26:07.702Z,1.00
2022-09-18T16:28:42.579Z,1.00
2022-09-18T16:31:12.403Z,1.00
2022-09-18T16:33:52.432Z,1.00
2022-09-18T16:36:32.838Z,1.00
2022-09-18T16:39:04.277Z,1.00
2022-09-18T16:41:33.567Z,1.00
2022-09-18T16:44:01.995Z,1.00
2022-09-18T16:46:35.050Z,1.00
2022-09-18T16:49:03.146Z,1.00
2022-09-18T16:51:33.005Z,1.00
2022-09-18T16:54:01.022Z,1.00
2022-09-18T16:56:34.723Z,1.00
2022-09-18T16:59:06.967Z,1.00
2022-09-18T17:02:00.125Z,1.00
2022-09-18T17:04:26.936Z,1.00
2022-09-18T17:06:56.335Z,1.00
2022-09-18T17:09:24.809Z,1.00
2022-09-18T17:11:54.496Z,1.00
2022-09-18T17:14:23.755Z,1.00
2022-09-18T17:16:52.581Z,1.00
2022-09-18T17:19:21.200Z,1.00
2022-09-18T17:21:50.310Z,1.00
2022-09-18T17:24:23.981Z,1.00
2022-09-18T17:26:53.018Z,1.00
2022-09-18T17:29:21.894Z,1.00
2022-09-18T17:31:49.986Z,1.00
2022-09-18T17:34:18.879Z,1.00
2022-09-18T17:36:47.136Z,1.00
2022-09-18T17:39:16.986Z,1.00
2022-09-18T17:41:46.521Z,1.00
2022-09-18T17:44:14.503Z,1.00
2022-09-18T17:46:42.555Z,1.00
2022-09-18T17:49:10.622Z,1.00
2022-09-18T17:51:38.623Z,1.00
2022-09-18T17:54:06.658Z,1.00
2022-09-18T17:56:35.182Z,5.60
2022-09-18T17:59:07.516Z,7.70
2022-09-18T18:01:38.892Z,9.00
2022-09-18T18:04:08.246Z,8.80
2022-09-18T18:06:37.902Z,11.70
2022-09-18T18:09:09.803Z,16.30
2022-09-18T18:11:38.674Z,18.90
2022-09-18T18:14:08.282Z,23.20
2022-09-18T18:16:38.396Z,31.60
2022-09-18T18:19:12.022Z,38.20
2022-09-18T18:21:42.859Z,48.70
2022-09-18T18:24:15.234Z,53.60
2022-09-18T18:26:45.060Z,72.70
2022-09-18T18:29:17.776Z,91.80
2022-09-18T18:31:49.705Z,98.30
2022-09-18T18:34:22.373Z,99.90
2022-09-18T18:36:52.508Z,99.90
2022-09-18T18:39:20.947Z,99.90
2022-09-18T18:41:49.735Z,99.90
2022-09-18T18:44:19.154Z,99.90
2022-09-18T18:46:48.098Z,99.90
2022-09-18T18:49:16.540Z,99.90
2022-09-18T18:51:47.693Z,99.90
2022-09-18T18:54:18.300Z,99.90
2022-09-18T18:56:47.001Z,99.90
2022-09-18T18:59:19.476Z,99.90
2022-09-18T19:01:48.181Z,99.90
2022-09-18T19:04:20.612Z,99.90
2022-09-18T19:06:49.645Z,99.90
2022-09-18T19:09:20.859Z,99.90
2022-09-18T19:11:50.770Z,99.90
2022-09-18T19:14:22.698Z,99.90
2022-09-18T19:16:54.217Z,99.90
2022-09-18T19:19:26.716Z,99.90
2022-09-18T19:21:59.654Z,99.90
2022-09-18T19:24:28.436Z,99.90
2022-09-18T19:26:57.051Z,99.90
2022-09-18T19:29:27.334Z,99.90
2022-09-18T19:31:56.373Z,99.90
2022-09-18T19:34:24.796Z,99.90
2022-09-18T19:36:54.159Z,99.90
2022-09-18T19:39:24.955Z,99.90
2022-09-18T19:41:59.344Z,99.90
2022-09-18T19:44:34.676Z,99.90
2022-09-18T19:47:08.470Z,99.90
2022-09-18T19:49:38.732Z,99.90
2022-09-18T19:52:18.234Z,99.90
2022-09-18T19:54:46.578Z,99.90
2022-09-18T19:57:15.620Z,99.90
2022-09-18T19:59:46.908Z,99.90
2022-09-18T20:02:17.764Z,99.90
2022-09-18T20:04:45.851Z,99.90
2022-09-18T20:07:15.011Z,99.90
2022-09-18T20:09:43.078Z,99.90
2022-09-18T20:12:11.242Z,99.90
2022-09-18T20:14:39.249Z,99.90
2022-09-18T20:17:09.860Z,99.90
2022-09-18T20:19:38.440Z,99.90
2022-09-18T20:22:06.637Z,99.90
2022-09-18T20:24:34.699Z,99.90
2022-09-18T20:27:02.896Z,99.90
2022-09-18T20:29:31.144Z,99.90
2022-09-18T20:31:59.186Z,99.90
2022-09-18T20:34:28.500Z,99.90
2022-09-18T20:36:56.536Z,99.90
2022-09-18T20:39:24.539Z,99.90
2022-09-18T20:41:52.502Z,99.90
2022-09-18T20:44:21.878Z,99.90
2022-09-18T20:46:50.250Z,99.90
2022-09-18T20:49:18.413Z,99.90
2022-09-18T20:51:47.783Z,99.90
2022-09-18T20:54:19.185Z,99.90
2022-09-18T20:56:47.611Z,99.90
2022-09-18T20:59:20.884Z,99.90
